Time;durP1;ratioP1;P1;durP2;ratioP2;P2;SDS_P1;SDS_P2;PMS_P1;PMS_P2;Temp;Humidity;BMP_temperature;BMP_pressure;BME280_temperature;BME280_humidity;BME280_pressure;Samples;Min_cycle;Max_cycle;Signal;HPM_P1;HPM_P2
2023/01/09 00:02:08;;;;;;;1.20;0.60;;;7.30;99.90;;;;;;5037559;28;20440;-71
2023/01/09 00:04:35;;;;;;;1.00;0.40;;;7.30;99.90;;;;;;5026924;28;20484;-71
2023/01/09 00:07:02;;;;;;;0.80;0.50;;;7.20;99.90;;;;;;5020321;28;20428;-71
2023/01/09 00:09:28;;;;;;;2.00;0.50;;;7.20;99.90;;;;;;5013600;28;20437;-71
2023/01/09 00:11:55;;;;;;;1.30;0.40;;;7.20;99.90;;;;;;5017301;28;20430;-70
2023/01/09 00:14:22;;;;;;;0.80;0.50;;;7.10;99.90;;;;;;5028126;28;20415;-71
2023/01/09 00:16:51;;;;;;;0.80;0.60;;;7.10;99.90;;;;;;5013656;28;20437;-70
2023/01/09 00:19:17;;;;;;;0.82;0.50;;;7.10;99.90;;;;;;5028269;28;20461;-70
2023/01/09 00:21:44;;;;;;;0.90;0.50;;;7.10;99.90;;;;;;5018318;28;20424;-71
2023/01/09 00:24:11;;;;;;;1.73;0.50;;;7.00;99.90;;;;;;5026696;28;21058;-71
2023/01/09 00:26:37;;;;;;;1.10;0.45;;;7.00;99.90;;;;;;5047574;28;20424;-70
2023/01/09 00:29:04;;;;;;;1.13;0.50;;;7.00;99.90;;;;;;5037933;28;20434;-70
2023/01/09 00:31:31;;;;;;;1.02;0.40;;;7.00;99.90;;;;;;5024556;28;20423;-70
2023/01/09 00:34:02;;;;;;;0.90;0.40;;;6.90;99.90;;;;;;5014073;28;20420;-70
2023/01/09 00:36:29;;;;;;;0.60;0.30;;;6.90;99.90;;;;;;5009614;28;20488;-70
2023/01/09 00:38:56;;;;;;;1.40;0.50;;;6.90;99.90;;;;;;5015124;28;20414;-70
2023/01/09 00:41:26;;;;;;;0.60;0.30;;;6.90;99.90;;;;;;5008979;28;20501;-71
2023/01/09 00:43:56;;;;;;;0.70;0.40;;;6.90;99.90;;;;;;5021948;28;20422;-71
2023/01/09 00:46:29;;;;;;;0.70;0.40;;;6.90;99.90;;;;;;5018638;28;20863;-69
2023/01/09 00:48:56;;;;;;;0.80;0.40;;;6.80;99.90;;;;;;5030391;28;20481;-70
2023/01/09 00:51:24;;;;;;;0.52;0.30;;;6.80;99.90;;;;;;5013737;28;20427;-72
2023/01/09 00:53:52;;;;;;;0.70;0.30;;;6.80;99.90;;;;;;5027478;28;20422;-71
2023/01/09 00:56:20;;;;;;;0.95;0.40;;;6.80;99.90;;;;;;5016893;28;20436;-71
2023/01/09 00:58:48;;;;;;;0.70;0.30;;;6.70;99.90;;;;;;5009856;28;20416;-71
2023/01/09 01:01:15;;;;;;;0.55;0.40;;;6.70;99.90;;;;;;5028894;28;20524;-69
2023/01/09 01:03:42;;;;;;;0.80;0.40;;;6.70;99.90;;;;;;5029736;28;20435;-71
2023/01/09 01:08:55;;;;;;;0.80;0.30;;;6.70;99.90;;;;;;5035104;28;22454;-70
2023/01/09 01:11:22;;;;;;;0.60;0.30;;;6.70;99.90;;;;;;5038484;28;20935;-70
2023/01/09 01:13:49;;;;;;;0.60;0.30;;;6.70;99.90;;;;;;5016343;28;20423;-71
2023/01/09 01:16:17;;;;;;;0.70;0.40;;;6.60;99.90;;;;;;5021096;28;20422;-71
2023/01/09 01:18:43;;;;;;;0.60;0.30;;;6.60;99.90;;;;;;5017698;28;20813;-71
2023/01/09 01:21:12;;;;;;;0.80;0.50;;;6.60;99.90;;;;;;5013430;28;20435;-71
2023/01/09 01:23:39;;;;;;;0.80;0.30;;;6.60;99.90;;;;;;5008912;28;20421;-70
2023/01/09 01:26:10;;;;;;;1.05;0.40;;;6.60;99.90;;;;;;5010953;28;20443;-71
2023/01/09 01:28:37;;;;;;;0.60;0.30;;;6.50;99.90;;;;;;5023785;28;20448;-71
2023/01/09 01:31:04;;;;;;;0.65;0.30;;;6.50;99.90;;;;;;5033602;28;20424;-70
2023/01/09 01:33:31;;;;;;;0.60;0.30;;;6.40;99.90;;;;;;5017588;28;20423;-71
2023/01/09 01:36:02;;;;;;;0.90;0.40;;;6.50;99.90;;;;;;5027686;28;20426;-71
2023/01/09 01:38:29;;;;;;;2.00;0.50;;;6.50;99.90;;;;;;5027266;28;20471;-71
2023/01/09 01:40:56;;;;;;;0.50;0.30;;;6.50;99.90;;;;;;5020202;28;20830;-71
2023/01/09 01:43:24;;;;;;;0.90;0.38;;;6.40;99.90;;;;;;5009188;28;20420;-71
2023/01/09 01:45:52;;;;;;;0.80;0.50;;;6.40;99.90;;;;;;5021872;28;20795;-72
2023/01/09 01:48:22;;;;;;;0.60;0.30;;;6.30;99.90;;;;;;5028053;28;20441;-72
2023/01/09 01:50:53;;;;;;;1.30;0.40;;;6.40;99.90;;;;;;5008032;28;20423;-70
2023/01/09 01:53:24;;;;;;;1.40;0.40;;;6.40;99.90;;;;;;5026969;28;20464;-71
2023/01/09 01:56:00;;;;;;;0.70;0.30;;;6.40;99.90;;;;;;5014669;28;20421;-71
2023/01/09 01:58:29;;;;;;;0.95;0.40;;;6.30;99.90;;;;;;5035032;28;20466;-71
2023/01/09 02:00:55;;;;;;;0.82;0.30;;;6.30;99.90;;;;;;5014309;28;20434;-72
2023/01/09 02:03:27;;;;;;;0.70;0.30;;;6.30;99.90;;;;;;5013939;28;20418;-71
2023/01/09 02:05:54;;;;;;;0.70;0.30;;;6.30;99.90;;;;;;5017241;28;20908;-71
2023/01/09 02:08:21;;;;;;;0.60;0.30;;;6.40;99.90;;;;;;5011539;28;20424;-71
2023/01/09 02:10:49;;;;;;;1.00;0.38;;;6.40;99.90;;;;;;5017315;28;20423;-70
2023/01/09 02:13:17;;;;;;;1.50;0.30;;;6.40;99.90;;;;;;5026193;28;20466;-70
2023/01/09 02:15:58;;;;;;;0.60;0.30;;;6.40;99.90;;;;;;5041262;28;20433;-71
2023/01/09 02:18:50;;;;;;;0.70;0.30;;;6.40;99.90;;;;;;5034655;28;20427;-72
2023/01/09 02:21:24;;;;;;;0.60;0.40;;;6.30;99.90;;;;;;5009891;28;20499;-71
2023/01/09 02:24:24;;;;;;;1.00;0.40;;;6.30;99.90;;;;;;5025890;28;20422;-72
2023/01/09 02:27:07;;;;;;;1.45;0.40;;;6.30;99.90;;;;;;5019483;28;20424;-71
2023/01/09 02:30:07;;;;;;;0.70;0.40;;;6.30;99.90;;;;;;5012354;28;20443;-71
2023/01/09 02:32:45;;;;;;;0.90;0.47;;;6.40;99.90;;;;;;5026443;28;20450;-71
2023/01/09 02:35:40;;;;;;;1.00;0.40;;;6.30;99.90;;;;;;5011713;28;20428;-70
2023/01/09 02:38:17;;;;;;;0.80;0.40;;;6.30;99.90;;;;;;5020879;28;21140;-70
2023/01/09 02:40:49;;;;;;;0.88;0.30;;;6.30;99.90;;;;;;5022302;28;20422;-71
2023/01/09 02:43:16;;;;;;;0.80;0.40;;;6.40;99.90;;;;;;5019211;28;21008;-71
2023/01/09 02:45:43;;;;;;;1.00;0.40;;;6.40;99.90;;;;;;5012445;28;20961;-70
2023/01/09 02:48:12;;;;;;;1.17;0.40;;;6.40;99.90;;;;;;5026561;28;20423;-70
2023/01/09 02:50:46;;;;;;;1.05;0.50;;;6.60;99.90;;;;;;5022062;28;20878;-70
2023/01/09 02:53:31;;;;;;;1.20;0.50;;;6.70;99.90;;;;;;5025607;28;20423;-71
2023/01/09 02:56:09;;;;;;;1.60;0.50;;;6.70;99.90;;;;;;5023468;28;20430;-71
2023/01/09 02:58:53;;;;;;;0.80;0.50;;;6.80;99.90;;;;;;5013166;28;20964;-70
2023/01/09 03:01:27;;;;;;;1.52;0.70;;;6.90;99.90;;;;;;5026988;28;20456;-71
2023/01/09 03:04:04;;;;;;;1.37;0.60;;;6.90;99.90;;;;;;5013138;28;20811;-71
2023/01/09 03:06:38;;;;;;;0.90;0.60;;;6.90;99.90;;;;;;5020131;28;20448;-71
2023/01/09 03:09:11;;;;;;;1.70;0.50;;;6.90;99.90;;;;;;5025232;28;20439;-71
2023/01/09 03:11:42;;;;;;;1.08;0.50;;;7.00;99.90;;;;;;5023069;28;20434;-70
2023/01/09 03:14:12;;;;;;;2.58;0.70;;;6.90;99.90;;;;;;5015569;28;20432;-71
2023/01/09 03:16:39;;;;;;;0.90;0.50;;;7.00;99.90;;;;;;5011690;28;20422;-70
2023/01/09 03:19:12;;;;;;;1.30;0.40;;;7.00;99.90;;;;;;5028037;28;21009;-70
2023/01/09 03:21:39;;;;;;;1.20;0.50;;;6.90;99.90;;;;;;5020078;28;21202;-70
2023/01/09 03:24:06;;;;;;;1.55;0.60;;;6.90;99.90;;;;;;5031067;28;20434;-71
2023/01/09 03:26:33;;;;;;;1.10;0.60;;;6.80;99.90;;;;;;5025966;28;20457;-70
2023/01/09 03:29:00;;;;;;;1.20;0.50;;;6.70;99.90;;;;;;5041664;28;20440;-71
2023/01/09 03:31:27;;;;;;;1.98;0.60;;;6.60;99.90;;;;;;5013407;28;20446;-71
2023/01/09 03:33:54;;;;;;;1.53;0.50;;;6.60;99.90;;;;;;5013824;28;20429;-70
2023/01/09 03:36:23;;;;;;;1.10;0.60;;;6.60;99.90;;;;;;5019416;28;20931;-71
2023/01/09 03:38:50;;;;;;;1.70;0.50;;;6.50;99.90;;;;;;5012433;28;20835;-71
2023/01/09 03:41:18;;;;;;;1.00;0.50;;;6.50;99.90;;;;;;5029340;28;20434;-71
2023/01/09 03:43:46;;;;;;;1.58;0.60;;;6.50;99.90;;;;;;5013727;28;20848;-71
2023/01/09 03:46:13;;;;;;;1.47;0.70;;;6.50;99.90;;;;;;5033713;23;20423;-70
2023/01/09 03:48:40;;;;;;;1.77;0.50;;;6.40;99.90;;;;;;5009107;28;20451;-70
2023/01/09 03:51:07;;;;;;;1.50;0.60;;;6.30;99.90;;;;;;5009773;28;20420;-70
2023/01/09 03:53:35;;;;;;;1.38;0.80;;;6.20;99.90;;;;;;5008899;28;20426;-70
2023/01/09 03:56:01;;;;;;;3.13;0.80;;;6.10;99.90;;;;;;5009456;28;20432;-70
2023/01/09 03:58:28;;;;;;;1.63;0.60;;;6.00;99.90;;;;;;4990298;28;20449;-70
2023/01/09 04:00:59;;;;;;;2.33;0.60;;;6.00;99.90;;;;;;4981689;28;20431;-70
2023/01/09 04:03:26;;;;;;;2.45;0.60;;;6.00;99.90;;;;;;4991411;28;20461;-70
2023/01/09 04:05:52;;;;;;;3.00;0.60;;;6.00;99.90;;;;;;4989891;28;20536;-69
2023/01/09 04:08:19;;;;;;;1.90;0.88;;;6.00;99.90;;;;;;4981054;28;20421;-69
2023/01/09 04:10:49;;;;;;;2.10;0.70;;;5.90;99.90;;;;;;4995129;28;20551;-68
2023/01/09 04:13:16;;;;;;;2.00;0.80;;;5.80;99.90;;;;;;4986352;28;20437;-68
2023/01/09 04:15:43;;;;;;;2.00;0.70;;;5.80;99.90;;;;;;4997148;28;20443;-69
2023/01/09 04:18:10;;;;;;;1.73;0.70;;;5.70;99.90;;;;;;4991750;28;20498;-71
2023/01/09 04:20:36;;;;;;;1.70;1.08;;;5.70;99.90;;;;;;4998212;28;20430;-70
2023/01/09 04:23:03;;;;;;;2.40;1.30;;;5.70;99.90;;;;;;4988855;28;20425;-71
2023/01/09 04:25:30;;;;;;;2.03;1.03;;;5.70;99.90;;;;;;4991040;28;20433;-69
2023/01/09 04:27:58;;;;;;;1.48;0.90;;;5.60;99.90;;;;;;4994923;28;20451;-70
2023/01/09 04:30:25;;;;;;;2.90;0.80;;;5.60;99.90;;;;;;4984843;28;20445;-71
2023/01/09 04:32:52;;;;;;;1.60;0.70;;;5.70;99.90;;;;;;4986608;28;20435;-71
2023/01/09 04:35:19;;;;;;;2.75;0.68;;;5.70;99.90;;;;;;4990649;28;20418;-69
2023/01/09 04:37:46;;;;;;;2.58;0.77;;;5.70;99.90;;;;;;4986745;28;20454;-69
2023/01/09 04:40:14;;;;;;;1.50;0.60;;;5.70;99.90;;;;;;4975678;28;20434;-70
2023/01/09 04:42:41;;;;;;;1.10;0.60;;;5.70;99.90;;;;;;4978299;28;20442;-71
2023/01/09 04:45:11;;;;;;;1.67;0.80;;;5.70;99.90;;;;;;4986609;28;20461;-71
2023/01/09 04:47:38;;;;;;;1.90;0.70;;;5.80;99.90;;;;;;4987308;28;20434;-70
2023/01/09 04:50:05;;;;;;;1.30;0.63;;;5.90;99.90;;;;;;5004081;28;20440;-70
2023/01/09 04:52:32;;;;;;;1.75;0.80;;;6.00;99.90;;;;;;4996153;28;20882;-70
2023/01/09 04:54:59;;;;;;;2.00;0.70;;;6.00;99.90;;;;;;4995494;28;20469;-71
2023/01/09 04:57:25;;;;;;;2.22;0.60;;;6.10;99.90;;;;;;4993366;28;20430;-71
2023/01/09 04:59:52;;;;;;;2.80;0.80;;;6.20;99.90;;;;;;4996619;28;20450;-71
2023/01/09 05:02:20;;;;;;;2.88;0.80;;;6.30;99.90;;;;;;5004781;28;20437;-70
2023/01/09 05:04:47;;;;;;;1.75;0.70;;;6.40;99.40;;;;;;4998302;28;20426;-68
2023/01/09 05:07:14;;;;;;;2.13;0.80;;;6.40;99.10;;;;;;4997527;28;20422;-70
2023/01/09 05:09:41;;;;;;;2.70;0.52;;;6.50;97.80;;;;;;4997778;28;20438;-73
2023/01/09 05:12:08;;;;;;;1.60;0.70;;;6.50;97.40;;;;;;4989429;28;20436;-71
2023/01/09 05:14:35;;;;;;;2.78;0.82;;;6.60;97.20;;;;;;4981549;28;20934;-69
2023/01/09 05:17:02;;;;;;;2.90;0.80;;;6.60;97.00;;;;;;4988948;28;20433;-71
2023/01/09 05:19:30;;;;;;;2.30;0.60;;;6.60;96.80;;;;;;4982858;28;20429;-71
2023/01/09 05:21:56;;;;;;;3.80;1.00;;;6.60;97.10;;;;;;5001915;28;20783;-71
2023/01/09 05:24:23;;;;;;;1.60;0.90;;;6.60;96.70;;;;;;4994176;28;20423;-70
2023/01/09 05:26:50;;;;;;;3.58;0.90;;;6.60;96.80;;;;;;5010560;28;20421;-71
2023/01/09 05:29:17;;;;;;;1.90;0.77;;;6.60;96.60;;;;;;4999649;28;20655;-71
2023/01/09 05:31:43;;;;;;;2.47;0.80;;;6.60;96.40;;;;;;4998783;28;20432;-70
2023/01/09 05:34:10;;;;;;;2.00;0.90;;;6.60;96.60;;;;;;4995276;28;20775;-71
2023/01/09 05:36:38;;;;;;;3.83;1.10;;;6.60;97.00;;;;;;5004969;28;20426;-70
2023/01/09 05:39:05;;;;;;;1.90;0.77;;;6.60;96.60;;;;;;5016026;28;20422;-70
2023/01/09 05:41:32;;;;;;;2.03;1.00;;;6.60;96.00;;;;;;5003043;28;20429;-72
2023/01/09 05:43:59;;;;;;;5.22;0.95;;;6.60;96.30;;;;;;5018708;28;20435;-71
2023/01/09 05:46:26;;;;;;;1.95;0.80;;;6.60;95.90;;;;;;5019983;28;20439;-72
2023/01/09 05:48:52;;;;;;;2.78;1.00;;;6.70;96.30;;;;;;4997024;28;20463;-71
2023/01/09 05:51:19;;;;;;;2.90;0.80;;;6.70;96.30;;;;;;5000751;28;20434;-70
2023/01/09 05:53:47;;;;;;;3.70;0.90;;;6.60;95.90;;;;;;4984220;28;20437;-73
2023/01/09 05:56:15;;;;;;;1.88;0.88;;;6.60;96.40;;;;;;4981867;28;20944;-72
2023/01/09 05:58:42;;;;;;;4.25;1.30;;;6.70;95.50;;;;;;4978610;28;20896;-71
2023/01/09 06:01:09;;;;;;;3.40;0.90;;;6.70;96.00;;;;;;4998934;28;20428;-72
2023/01/09 06:03:35;;;;;;;2.00;0.70;;;6.70;95.80;;;;;;4988978;28;20441;-71
2023/01/09 06:06:02;;;;;;;2.22;0.73;;;6.70;95.80;;;;;;4987265;28;20911;-71
2023/01/09 06:08:29;;;;;;;1.92;0.70;;;6.80;95.70;;;;;;4985664;28;20468;-72
2023/01/09 06:10:57;;;;;;;1.70;0.80;;;6.80;95.20;;;;;;4984348;28;20434;-72
2023/01/09 06:13:24;;;;;;;3.47;1.10;;;6.80;95.40;;;;;;4981921;28;20450;-72
2023/01/09 06:15:51;;;;;;;1.77;0.75;;;6.80;95.60;;;;;;4988900;28;20809;-71
2023/01/09 06:18:17;;;;;;;2.55;0.70;;;6.80;95.20;;;;;;4987473;28;20462;-73
2023/01/09 06:20:45;;;;;;;3.10;1.00;;;6.80;95.60;;;;;;4982694;28;20445;-72
2023/01/09 06:23:12;;;;;;;3.90;1.20;;;6.90;95.40;;;;;;4983877;28;20508;-70
2023/01/09 06:25:38;;;;;;;1.73;0.70;;;6.90;95.70;;;;;;4988289;28;20418;-70
2023/01/09 06:28:07;;;;;;;2.85;0.70;;;6.90;95.10;;;;;;4987480;28;20562;-69
2023/01/09 06:30:34;;;;;;;1.95;0.63;;;6.90;95.70;;;;;;4984403;28;20438;-73
2023/01/09 06:33:01;;;;;;;1.52;0.70;;;7.00;95.60;;;;;;4977725;28;20438;-70
2023/01/09 06:35:28;;;;;;;2.03;1.00;;;7.00;95.40;;;;;;4987973;28;20438;-70
2023/01/09 06:37:54;;;;;;;3.90;1.20;;;7.00;95.90;;;;;;4988645;28;20416;-70
2023/01/09 06:40:21;;;;;;;2.38;0.80;;;7.00;95.90;;;;;;4986979;28;20426;-71
2023/01/09 06:42:49;;;;;;;1.27;1.00;;;7.00;95.90;;;;;;4986074;28;20430;-70
2023/01/09 06:45:17;;;;;;;3.40;1.00;;;7.00;96.00;;;;;;4986034;28;20425;-71
2023/01/09 06:47:44;;;;;;;2.45;1.13;;;7.00;95.80;;;;;;4985899;28;20414;-70
2023/01/09 06:50:11;;;;;;;1.50;0.80;;;7.00;96.20;;;;;;4988299;28;20497;-71
2023/01/09 06:52:38;;;;;;;3.53;0.93;;;7.00;96.80;;;;;;4989318;28;20754;-71
2023/01/09 06:55:07;;;;;;;1.50;0.77;;;7.10;96.50;;;;;;4985349;28;20943;-70
2023/01/09 06:57:34;;;;;;;2.85;0.90;;;7.10;96.50;;;;;;4977123;28;20554;-71
2023/01/09 07:00:00;;;;;;;2.97;1.00;;;7.10;96.40;;;;;;4982113;28;20442;-70
2023/01/09 07:02:28;;;;;;;1.73;0.80;;;7.10;96.30;;;;;;4977066;28;20438;-71
2023/01/09 07:04:55;;;;;;;3.30;1.10;;;7.10;96.50;;;;;;4984547;28;20473;-71
2023/01/09 07:07:22;;;;;;;2.00;1.30;;;7.10;96.50;;;;;;4981129;28;20446;-71
2023/01/09 07:09:49;;;;;;;1.60;1.00;;;7.10;96.10;;;;;;4982904;28;20441;-70
2023/01/09 07:12:15;;;;;;;1.77;0.90;;;7.20;96.60;;;;;;4985234;28;20784;-71
2023/01/09 07:14:42;;;;;;;2.83;1.20;;;7.20;96.70;;;;;;4977097;28;20545;-72
2023/01/09 07:17:11;;;;;;;3.92;1.73;;;7.20;96.90;;;;;;4982238;28;20436;-71
2023/01/09 07:19:39;;;;;;;2.45;1.20;;;7.30;97.10;;;;;;4972538;28;20442;-70
2023/01/09 07:22:06;;;;;;;2.20;0.90;;;7.40;96.90;;;;;;4992909;28;20444;-70
2023/01/09 07:24:33;;;;;;;2.55;1.20;;;7.40;96.50;;;;;;4991022;28;20433;-71
2023/01/09 07:27:00;;;;;;;2.72;1.10;;;7.40;96.20;;;;;;4987986;28;20427;-71
2023/01/09 07:29:26;;;;;;;3.25;1.60;;;7.40;96.30;;;;;;4998912;28;20436;-69
2023/01/09 07:31:53;;;;;;;2.60;1.20;;;7.40;96.40;;;;;;5000940;28;20468;-69
2023/01/09 07:34:20;;;;;;;3.05;1.10;;;7.40;96.50;;;;;;4988666;28;20443;-69
2023/01/09 07:36:49;;;;;;;2.85;1.10;;;7.40;96.70;;;;;;4994092;28;20616;-72
2023/01/09 07:39:17;;;;;;;2.25;1.10;;;7.40;96.50;;;;;;4994563;28;20567;-72
2023/01/09 07:41:44;;;;;;;1.80;1.17;;;7.40;96.60;;;;;;4980531;28;20450;-71
2023/01/09 07:44:11;;;;;;;2.60;1.10;;;7.40;96.80;;;;;;4997431;28;20496;-70
2023/01/09 07:46:38;;;;;;;2.17;1.10;;;7.40;97.00;;;;;;5004350;28;20440;-69
2023/01/09 07:49:05;;;;;;;2.50;1.00;;;7.40;97.20;;;;;;5003058;28;20438;-73
2023/01/09 07:51:32;;;;;;;3.65;1.08;;;7.40;96.80;;;;;;4999706;28;20434;-71
2023/01/09 07:54:00;;;;;;;1.95;0.90;;;7.40;96.60;;;;;;4988176;28;20520;-66
2023/01/09 07:56:27;;;;;;;2.40;0.90;;;7.50;97.20;;;;;;4991778;28;21058;-69
2023/01/09 07:58:54;;;;;;;1.83;1.10;;;7.50;97.00;;;;;;4998013;28;20451;-68
2023/01/09 08:01:20;;;;;;;2.40;1.23;;;7.50;96.50;;;;;;4985515;28;20903;-69
2023/01/09 08:03:47;;;;;;;3.08;1.10;;;7.50;96.30;;;;;;4993137;28;20449;-70
2023/01/09 08:06:14;;;;;;;2.40;1.20;;;7.50;96.30;;;;;;4998480;28;20486;-71
2023/01/09 08:08:41;;;;;;;1.65;1.20;;;7.50;96.50;;;;;;4988505;28;20762;-70
2023/01/09 08:11:10;;;;;;;3.40;1.60;;;7.50;96.10;;;;;;5000644;28;20961;-72
2023/01/09 08:13:36;;;;;;;2.73;1.50;;;7.60;96.20;;;;;;4984605;28;20567;-72
2023/01/09 08:16:03;;;;;;;2.20;1.30;;;7.60;96.30;;;;;;4981194;28;20886;-71
2023/01/09 08:18:30;;;;;;;1.70;1.10;;;7.60;96.40;;;;;;4977584;28;20442;-70
2023/01/09 08:20:57;;;;;;;2.70;1.30;;;7.60;96.10;;;;;;4979255;28;20448;-71
2023/01/09 08:23:24;;;;;;;1.90;1.30;;;7.60;96.20;;;;;;4983424;28;20445;-71
2023/01/09 08:25:50;;;;;;;1.70;1.20;;;7.60;96.10;;;;;;4987131;28;20466;-70
2023/01/09 08:28:19;;;;;;;1.80;1.13;;;7.60;96.50;;;;;;4986096;28;20436;-70
2023/01/09 08:30:47;;;;;;;2.97;1.20;;;7.60;96.30;;;;;;4985293;28;20450;-70
2023/01/09 08:33:13;;;;;;;2.13;0.95;;;7.60;96.40;;;;;;4975252;28;20472;-71
2023/01/09 08:35:40;;;;;;;2.97;1.10;;;7.70;96.40;;;;;;4982101;28;20443;-70
2023/01/09 08:38:07;;;;;;;2.05;1.00;;;7.60;96.60;;;;;;4999056;28;20452;-71
2023/01/09 08:40:34;;;;;;;1.60;0.80;;;7.60;96.40;;;;;;4990027;28;20423;-70
2023/01/09 08:48:30;;;;;;;2.58;0.82;;;7.60;96.70;;;;;;4988851;28;20493;-70
2023/01/09 08:50:57;;;;;;;2.15;0.80;;;7.60;96.30;;;;;;4987693;28;20544;-70
2023/01/09 08:53:24;;;;;;;1.80;0.70;;;7.60;95.90;;;;;;4988540;28;20438;-69
2023/01/09 08:55:50;;;;;;;1.95;0.80;;;7.70;96.10;;;;;;4984705;28;20439;-69
2023/01/09 08:58:17;;;;;;;1.50;0.75;;;7.70;96.00;;;;;;4986894;28;20432;-71
2023/01/09 09:00:45;;;;;;;1.88;0.90;;;7.70;95.70;;;;;;4988266;28;20449;-69
2023/01/09 09:03:12;;;;;;;1.60;0.82;;;7.70;95.70;;;;;;4993810;28;20429;-70
2023/01/09 09:05:39;;;;;;;2.70;0.90;;;7.80;96.30;;;;;;4996388;28;20507;-69
2023/01/09 09:08:06;;;;;;;2.53;1.43;;;7.80;96.90;;;;;;4984758;28;20481;-72
2023/01/09 09:10:33;;;;;;;3.72;1.08;;;7.70;97.90;;;;;;4988966;28;20438;-69
2023/01/09 09:12:59;;;;;;;1.10;0.80;;;7.60;99.30;;;;;;4988380;28;20442;-70
2023/01/09 09:15:27;;;;;;;3.00;0.90;;;7.50;99.90;;;;;;4986798;28;20551;-72
2023/01/09 09:17:57;;;;;;;2.88;1.27;;;7.40;99.90;;;;;;4992409;28;20445;-71
2023/01/09 09:20:26;;;;;;;1.52;0.90;;;7.30;99.90;;;;;;5004478;28;20446;-72
2023/01/09 09:22:53;;;;;;;1.88;0.80;;;7.20;99.90;;;;;;5002686;28;20428;-72
2023/01/09 09:25:20;;;;;;;1.92;1.00;;;7.20;99.90;;;;;;4986902;28;20446;-70
2023/01/09 09:27:48;;;;;;;2.10;0.85;;;7.10;99.90;;;;;;4987147;28;20440;-71
2023/01/09 09:30:17;;;;;;;1.83;1.00;;;7.20;99.90;;;;;;4984689;28;20430;-69
2023/01/09 09:32:44;;;;;;;2.10;0.82;;;7.20;99.90;;;;;;4988987;28;20452;-71
2023/01/09 09:35:12;;;;;;;3.60;1.00;;;7.20;99.90;;;;;;4990333;28;20898;-69
2023/01/09 09:37:39;;;;;;;1.52;0.80;;;7.20;99.90;;;;;;5004573;28;20445;-71
2023/01/09 09:40:11;;;;;;;2.05;0.80;;;7.30;99.90;;;;;;5002410;28;20517;-70
2023/01/09 09:45:50;;;;;;;1.98;0.80;;;7.30;99.90;;;;;;5000435;28;20432;-73
2023/01/09 09:48:33;;;;;;;2.15;1.05;;;7.30;99.90;;;;;;4998168;28;20517;-68
2023/01/09 09:51:23;;;;;;;2.53;1.10;;;7.30;99.90;;;;;;4994668;28;20428;-69
2023/01/09 09:53:58;;;;;;;1.40;0.77;;;7.30;99.90;;;;;;4992257;28;20498;-71
2023/01/09 09:56:27;;;;;;;0.90;0.60;;;7.30;99.90;;;;;;4984580;28;20997;-70
2023/01/09 09:58:59;;;;;;;1.73;0.80;;;7.30;99.70;;;;;;4991368;28;20453;-71
2023/01/09 10:01:42;;;;;;;2.10;0.80;;;7.30;99.90;;;;;;4990820;28;20498;-75
2023/01/09 10:04:13;;;;;;;1.80;0.98;;;7.30;99.90;;;;;;4989392;28;20783;-73
2023/01/09 10:06:44;;;;;;;0.98;0.70;;;7.30;99.90;;;;;;4990763;28;20445;-71
2023/01/09 10:09:18;;;;;;;1.20;0.70;;;7.40;99.40;;;;;;4982626;28;20438;-71
2023/01/09 10:11:51;;;;;;;2.80;0.90;;;7.40;99.50;;;;;;4988331;28;20442;-71
2023/01/09 10:14:18;;;;;;;1.00;0.60;;;7.40;99.50;;;;;;4981022;28;20494;-71
2023/01/09 10:17:11;;;;;;;1.45;0.95;;;7.50;99.60;;;;;;4990008;28;21003;-71
2023/01/09 10:19:57;;;;;;;1.50;0.80;;;7.50;99.70;;;;;;4989796;28;20495;-70
2023/01/09 10:22:34;;;;;;;2.97;0.80;;;7.50;99.50;;;;;;4980362;28;20457;-71
2023/01/09 10:25:12;;;;;;;1.50;0.75;;;7.50;99.90;;;;;;5003047;28;21032;-70
2023/01/09 10:27:56;;;;;;;1.10;0.80;;;7.60;98.90;;;;;;4985968;28;20438;-70
2023/01/09 10:30:32;;;;;;;1.73;0.57;;;7.70;96.60;;;;;;4983651;28;20497;-70
2023/01/09 10:33:11;;;;;;;1.70;0.90;;;7.70;96.90;;;;;;4978474;28;21178;-74
2023/01/09 10:35:49;;;;;;;1.77;0.80;;;7.70;97.30;;;;;;4976983;28;20446;-70
2023/01/09 10:38:23;;;;;;;1.38;0.60;;;7.70;98.60;;;;;;4987376;28;20436;-72
2023/01/09 10:40:55;;;;;;;1.20;0.60;;;7.70;98.50;;;;;;4988313;28;20479;-71
2023/01/09 10:43:33;;;;;;;1.83;0.90;;;7.70;98.10;;;;;;4989226;28;20452;-71
2023/01/09 10:46:03;;;;;;;1.17;0.60;;;7.70;97.30;;;;;;4985460;28;20528;-69
2023/01/09 10:48:33;;;;;;;2.38;0.90;;;7.90;96.20;;;;;;4984350;28;20454;-72
2023/01/09 10:51:00;;;;;;;1.00;0.77;;;7.90;96.40;;;;;;4977579;28;20444;-69
2023/01/09 10:53:32;;;;;;;2.20;1.00;;;8.10;95.80;;;;;;4977102;28;20424;-69
2023/01/09 10:56:04;;;;;;;2.47;0.73;;;8.20;94.40;;;;;;4980334;28;20525;-69
2023/01/09 10:58:31;;;;;;;1.38;0.70;;;8.30;94.40;;;;;;4985557;28;20461;-70
2023/01/09 11:01:00;;;;;;;1.63;0.70;;;8.40;93.90;;;;;;4985253;28;20438;-69
2023/01/09 11:03:28;;;;;;;3.20;0.82;;;8.50;92.70;;;;;;4975364;28;20521;-74
2023/01/09 11:05:57;;;;;;;2.40;1.25;;;8.70;94.80;;;;;;4984874;28;20449;-67
2023/01/09 11:08:30;;;;;;;2.00;0.85;;;8.80;92.70;;;;;;4977435;28;20442;-71
2023/01/09 11:10:59;;;;;;;2.47;0.60;;;8.90;90.90;;;;;;4984850;28;21269;-72
2023/01/09 11:13:28;;;;;;;3.10;0.70;;;8.80;91.10;;;;;;4984972;28;20426;-72
2023/01/09 11:16:00;;;;;;;1.30;0.70;;;8.80;91.10;;;;;;4982150;28;20969;-73
2023/01/09 11:18:27;;;;;;;1.10;0.65;;;8.80;90.70;;;;;;4984256;28;20449;-73
2023/01/09 11:20:54;;;;;;;1.52;0.70;;;8.80;90.10;;;;;;4990458;28;20438;-73
2023/01/09 11:23:27;;;;;;;1.98;0.80;;;8.80;90.30;;;;;;4983790;28;20422;-72
2023/01/09 11:25:57;;;;;;;1.52;0.70;;;8.70;90.60;;;;;;4984985;28;20426;-71
2023/01/09 11:28:24;;;;;;;1.45;0.60;;;8.70;90.40;;;;;;4985675;28;20949;-72
2023/01/09 11:30:53;;;;;;;2.10;0.55;;;8.70;90.80;;;;;;4991356;28;20444;-73
2023/01/09 11:33:23;;;;;;;1.98;0.60;;;8.60;90.10;;;;;;4998663;28;20426;-71
2023/01/09 11:35:56;;;;;;;1.20;0.60;;;8.60;90.20;;;;;;4997676;28;20857;-73
2023/01/09 11:38:23;;;;;;;2.22;0.73;;;8.60;90.30;;;;;;4986690;28;20426;-71
2023/01/09 11:40:54;;;;;;;2.00;0.80;;;8.60;90.50;;;;;;4978588;28;20796;-70
2023/01/09 11:43:29;;;;;;;2.83;0.90;;;8.60;91.40;;;;;;4982929;28;20439;-69
2023/01/09 11:45:58;;;;;;;5.95;1.50;;;8.60;90.90;;;;;;4985839;28;20566;-72
2023/01/09 11:48:31;;;;;;;2.25;1.13;;;8.60;90.30;;;;;;4983439;28;20426;-71
2023/01/09 11:50:59;;;;;;;3.80;1.30;;;8.60;91.10;;;;;;4980606;28;20499;-71
2023/01/09 11:53:27;;;;;;;1.73;0.90;;;8.50;91.80;;;;;;4984166;28;20430;-71
2023/01/09 11:55:59;;;;;;;1.90;0.80;;;8.50;91.10;;;;;;4976600;28;20441;-71
2023/01/09 11:58:33;;;;;;;1.75;0.70;;;8.50;91.50;;;;;;4989155;28;20847;-72
2023/01/09 12:01:10;;;;;;;2.20;1.05;;;8.50;91.40;;;;;;4983449;28;20514;-70
2023/01/09 12:04:02;;;;;;;2.70;0.70;;;8.40;91.10;;;;;;4985701;28;20442;-70
2023/01/09 12:06:36;;;;;;;1.60;0.70;;;8.40;90.90;;;;;;4981615;28;20982;-68
2023/01/09 12:09:06;;;;;;;1.67;0.70;;;8.40;90.10;;;;;;4992039;28;20449;-70
2023/01/09 12:11:40;;;;;;;1.10;0.60;;;8.50;90.30;;;;;;4990107;28;20856;-70
2023/01/09 12:14:20;;;;;;;2.30;0.90;;;8.50;90.40;;;;;;4987182;28;20453;-71
2023/01/09 12:17:01;;;;;;;3.30;0.90;;;8.50;89.00;;;;;;4983630;28;20446;-74
2023/01/09 12:19:54;;;;;;;2.27;1.10;;;8.50;89.90;;;;;;4987653;28;20457;-73
2023/01/09 12:22:31;;;;;;;1.45;0.70;;;8.60;88.50;;;;;;4984369;28;20464;-70
2023/01/09 12:25:21;;;;;;;2.58;0.88;;;8.60;89.50;;;;;;4994480;28;20424;-72
2023/01/09 12:28:03;;;;;;;2.50;0.80;;;8.80;88.50;;;;;;4977931;28;20434;-72
2023/01/09 12:30:52;;;;;;;2.17;0.70;;;8.80;88.20;;;;;;4988538;28;20458;-69
2023/01/09 12:33:31;;;;;;;4.00;0.80;;;8.90;88.10;;;;;;4994049;28;20473;-71
2023/01/09 12:36:09;;;;;;;0.80;0.50;;;8.80;88.30;;;;;;4985806;28;20522;-71
2023/01/09 12:38:46;;;;;;;1.52;0.82;;;8.70;88.60;;;;;;4982991;28;20907;-72
2023/01/09 12:41:25;;;;;;;1.20;0.80;;;8.80;88.90;;;;;;4985374;28;20426;-70
2023/01/09 12:44:08;;;;;;;1.50;0.70;;;8.90;87.80;;;;;;4981083;28;20936;-72
2023/01/09 12:46:47;;;;;;;2.20;1.00;;;8.90;88.20;;;;;;4980913;28;20468;-71
2023/01/09 12:49:30;;;;;;;1.42;0.60;;;9.00;88.40;;;;;;4991073;28;20442;-73
2023/01/09 12:52:03;;;;;;;1.70;0.68;;;8.90;87.10;;;;;;4985137;28;20437;-71
2023/01/09 12:54:36;;;;;;;2.65;0.90;;;8.80;87.90;;;;;;4992745;28;20438;-70
2023/01/09 12:57:10;;;;;;;1.50;0.90;;;9.00;87.40;;;;;;4990774;28;20450;-70
2023/01/09 12:59:42;;;;;;;1.80;0.88;;;9.80;85.10;;;;;;4997823;28;20857;-70
2023/01/09 13:02:20;;;;;;;1.90;0.80;;;11.20;77.10;;;;;;4985363;28;20444;-69
2023/01/09 13:04:53;;;;;;;1.17;0.77;;;11.60;72.10;;;;;;4996673;28;20451;-70
2023/01/09 13:07:24;;;;;;;3.05;0.90;;;11.30;71.60;;;;;;4987986;28;20446;-69
2023/01/09 13:09:56;;;;;;;1.85;0.85;;;10.80;74.50;;;;;;4997539;28;20420;-69
2023/01/09 13:12:24;;;;;;;1.83;0.60;;;10.20;77.40;;;;;;4990701;28;20438;-69
2023/01/09 13:14:57;;;;;;;1.88;0.80;;;10.10;80.00;;;;;;4976848;28;20838;-69
2023/01/09 13:17:31;;;;;;;2.72;0.90;;;10.60;78.70;;;;;;4977632;28;20616;-69
2023/01/09 13:19:57;;;;;;;2.45;0.80;;;11.50;73.60;;;;;;4984037;28;20444;-69
2023/01/09 13:22:27;;;;;;;2.78;1.20;;;13.10;66.50;;;;;;4986384;28;20537;-68
2023/01/09 13:25:16;;;;;;;2.42;1.20;;;13.60;64.00;;;;;;4984750;28;20450;-71